createdAt,value
2017-11-05T00:00:47.260Z,19.97
2017-11-05T00:03:14.960Z,18.40
2017-11-05T00:05:42.617Z,17.77
2017-11-05T00:08:10.317Z,18.10
2017-11-05T00:10:37.979Z,21.60
2017-11-05T00:13:05.689Z,21.17
2017-11-05T00:15:34.124Z,22.33
2017-11-05T00:18:01.822Z,18.67
2017-11-05T00:20:30.260Z,17.23
2017-11-05T00:22:57.956Z,19.70
2017-11-05T00:25:26.380Z,17.53
2017-11-05T00:27:54.071Z,17.63
2017-11-05T00:30:21.736Z,19.60
2017-11-05T00:32:49.434Z,18.73
2017-11-05T00:35:17.106Z,17.67
2017-11-05T00:37:44.827Z,18.83
2017-11-05T00:40:13.248Z,22.20
2017-11-05T00:42:40.947Z,17.90
2017-11-05T00:45:08.612Z,18.93
2017-11-05T00:47:36.308Z,18.73
2017-11-05T00:50:03.981Z,18.60
2017-11-05T00:52:31.693Z,17.60
2017-11-05T00:54:59.343Z,20.43
2017-11-05T00:57:27.042Z,19.53
2017-11-05T00:59:54.700Z,17.93
2017-11-05T01:02:23.163Z,22.37
2017-11-05T01:04:51.587Z,21.17
2017-11-05T01:07:19.299Z,27.70
2017-11-05T01:09:47.732Z,21.50
2017-11-05T01:12:15.471Z,21.77
2017-11-05T01:14:43.119Z,22.67
2017-11-05T01:17:10.820Z,20.03
2017-11-05T01:19:38.471Z,22.97
2017-11-05T01:22:06.171Z,19.97
2017-11-05T01:24:34.612Z,19.27
2017-11-05T01:27:02.309Z,18.30
2017-11-05T01:29:30.904Z,22.90
2017-11-05T01:31:59.507Z,25.20
2017-11-05T01:34:27.174Z,20.63
2017-11-05T01:36:54.884Z,22.13
2017-11-05T01:39:22.551Z,21.30
2017-11-05T01:41:51.028Z,21.53
2017-11-05T01:44:19.476Z,22.23
2017-11-05T01:46:47.172Z,22.43
2017-11-05T01:49:15.611Z,17.63
2017-11-05T01:51:43.319Z,20.63
2017-11-05T01:54:11.747Z,20.30
2017-11-05T01:56:39.481Z,20.60
2017-11-05T01:59:07.152Z,26.63
2017-11-05T02:01:34.851Z,19.60
2017-11-05T02:04:02.707Z,21.83
2017-11-05T02:06:30.472Z,20.70
2017-11-05T02:08:58.191Z,21.20
2017-11-05T02:11:25.943Z,22.70
2017-11-05T02:13:53.598Z,19.40
2017-11-05T02:16:21.312Z,21.60
2017-11-05T02:18:48.979Z,19.63
2017-11-05T02:21:17.468Z,20.87
2017-11-05T02:23:45.988Z,19.90
2017-11-05T02:26:13.705Z,24.23
2017-11-05T02:28:42.236Z,20.40
2017-11-05T02:31:09.955Z,20.73
2017-11-05T02:33:38.428Z,20.60
2017-11-05T02:36:06.916Z,19.60
2017-11-05T02:38:35.395Z,20.70
2017-11-05T02:41:03.854Z,23.57
2017-11-05T02:43:31.562Z,22.33
2017-11-05T02:45:59.282Z,24.07
2017-11-05T02:48:27.793Z,25.43
2017-11-05T02:50:55.505Z,21.33
2017-11-05T02:53:23.267Z,27.40
2017-11-05T02:55:51.112Z,22.37
2017-11-05T02:58:18.870Z,26.63
2017-11-05T03:00:46.605Z,30.23
2017-11-05T03:03:14.362Z,24.63
2017-11-05T03:05:42.068Z,27.43
2017-11-05T03:08:09.837Z,29.67
2017-11-05T03:10:37.532Z,27.27
2017-11-05T03:13:05.308Z,27.43
2017-11-05T03:15:33.304Z,24.30
2017-11-05T03:18:01.067Z,23.50
2017-11-05T03:20:28.791Z,24.00
2017-11-05T03:22:56.581Z,30.90
2017-11-05T03:25:24.308Z,29.73
2017-11-05T03:27:52.071Z,24.93
2017-11-05T03:30:19.793Z,25.57
2017-11-05T03:32:47.555Z,31.40
2017-11-05T03:35:15.278Z,25.70
2017-11-05T03:37:43.043Z,31.50
2017-11-05T03:40:10.767Z,31.57
2017-11-05T03:42:39.300Z,26.93
2017-11-05T03:45:07.031Z,30.43
2017-11-05T03:47:34.799Z,29.80
2017-11-05T03:50:02.519Z,30.73
2017-11-05T03:52:31.048Z,31.03
2017-11-05T03:54:58.767Z,26.37
2017-11-05T03:57:27.299Z,37.40
2017-11-05T03:59:55.019Z,31.47
2017-11-05T04:02:22.780Z,35.17
2017-11-05T04:04:50.491Z,28.50
2017-11-05T04:07:18.256Z,33.70
2017-11-05T04:09:45.983Z,33.87
2017-11-05T04:12:13.755Z,29.60
2017-11-05T04:14:41.482Z,25.70
2017-11-05T04:17:09.239Z,30.63
2017-11-05T04:19:37.001Z,33.67
2017-11-05T04:22:04.771Z,36.43
2017-11-05T04:24:32.497Z,28.50
2017-11-05T04:27:00.265Z,29.07
2017-11-05T04:29:28.759Z,45.77
2017-11-05T04:31:57.299Z,39.40
2017-11-05T04:34:25.027Z,40.67
2017-11-05T04:36:52.787Z,33.10
2017-11-05T04:39:20.528Z,32.10
2017-11-05T04:41:48.247Z,30.40
2017-11-05T04:44:15.993Z,30.70
2017-11-05T04:46:43.747Z,36.60
2017-11-05T04:49:11.512Z,43.97
2017-11-05T04:51:39.223Z,37.60
2017-11-05T04:54:07.799Z,31.33
2017-11-05T04:56:36.310Z,24.23
2017-11-05T04:59:04.120Z,24.63
2017-11-05T05:01:31.839Z,25.47
2017-11-05T05:03:59.609Z,23.23
2017-11-05T05:06:27.349Z,25.63
2017-11-05T05:08:55.120Z,21.87
2017-11-05T05:11:22.842Z,26.47
2017-11-05T05:13:51.360Z,33.80
2017-11-05T05:16:19.101Z,31.93
2017-11-05T05:18:46.871Z,36.07
2017-11-05T05:21:14.599Z,29.40
2017-11-05T05:23:42.342Z,27.43
2017-11-05T05:26:10.056Z,29.10
2017-11-05T05:28:37.827Z,25.40
2017-11-05T05:31:05.548Z,25.77
2017-11-05T05:33:34.083Z,29.23
2017-11-05T05:36:01.799Z,24.30
2017-11-05T05:38:30.331Z,29.27
2017-11-05T05:40:58.047Z,33.40
2017-11-05T05:43:25.815Z,28.93
2017-11-05T05:45:53.543Z,29.10
2017-11-05T05:48:21.308Z,35.70
2017-11-05T05:50:49.804Z,25.83
2017-11-05T05:53:18.345Z,28.40
2017-11-05T05:55:46.064Z,31.90
2017-11-05T05:58:13.840Z,28.07
2017-11-05T06:00:41.563Z,30.73
2017-11-05T06:03:10.112Z,30.90
2017-11-05T06:05:37.842Z,29.43
2017-11-05T06:08:05.603Z,27.57
2017-11-05T06:10:33.332Z,32.00
2017-11-05T06:13:03.439Z,26.30
2017-11-05T06:15:33.995Z,36.03
2017-11-05T06:18:03.835Z,30.67
2017-11-05T06:20:33.362Z,53.57
2017-11-05T06:23:03.141Z,33.40
2017-11-05T06:25:31.771Z,43.50
2017-11-05T06:28:00.307Z,33.33
2017-11-05T06:30:28.030Z,31.50
2017-11-05T06:32:55.797Z,41.33
2017-11-05T06:35:23.522Z,39.50
2017-11-05T06:37:52.060Z,32.43
2017-11-05T06:40:19.787Z,28.33
2017-11-05T06:42:47.567Z,57.20
2017-11-05T06:45:15.288Z,47.70
2017-11-05T06:47:43.819Z,60.83
2017-11-05T06:50:11.552Z,47.77
2017-11-05T06:52:39.323Z,42.07
2017-11-05T06:55:07.043Z,40.90
2017-11-05T06:57:34.792Z,28.97
2017-11-05T07:00:02.544Z,27.33
2017-11-05T07:02:30.316Z,28.30
2017-11-05T07:04:58.035Z,28.13
2017-11-05T07:07:25.808Z,32.03
2017-11-05T07:09:53.548Z,28.00
2017-11-05T07:12:21.263Z,28.97
2017-11-05T07:14:49.031Z,32.87
2017-11-05T07:17:16.763Z,30.90
2017-11-05T07:19:44.526Z,30.00
2017-11-05T07:22:12.257Z,27.80
2017-11-05T07:24:40.015Z,25.20
2017-11-05T07:27:07.743Z,19.00
2017-11-05T07:29:36.275Z,13.87
2017-11-05T07:32:03.995Z,13.57
2017-11-05T07:34:32.532Z,16.50
2017-11-05T07:37:00.265Z,13.67
2017-11-05T07:39:28.055Z,14.60
2017-11-05T07:41:55.771Z,12.90
2017-11-05T07:44:23.528Z,16.10
2017-11-05T07:46:51.268Z,14.40
2017-11-05T07:49:19.803Z,14.30
2017-11-05T07:51:47.527Z,14.87
2017-11-05T07:54:16.059Z,13.63
2017-11-05T07:56:43.778Z,14.70
2017-11-05T07:59:11.583Z,11.80
2017-11-05T08:01:39.291Z,11.13
2017-11-05T08:04:07.803Z,11.63
2017-11-05T08:06:35.523Z,12.07
2017-11-05T08:09:04.057Z,11.63
2017-11-05T08:11:31.791Z,13.10
2017-11-05T08:13:59.522Z,12.40
2017-11-05T08:16:28.012Z,14.37
2017-11-05T08:18:55.787Z,15.33
2017-11-05T08:21:23.520Z,15.27
2017-11-05T08:23:52.080Z,15.23
2017-11-05T08:26:19.772Z,13.93
2017-11-05T08:28:47.509Z,15.87
2017-11-05T08:31:15.212Z,18.90
2017-11-05T08:33:42.951Z,17.80
2017-11-05T08:36:11.395Z,22.90
2017-11-05T08:38:39.115Z,31.73
2017-11-05T08:41:06.851Z,31.07
2017-11-05T08:43:34.619Z,37.43
2017-11-05T08:46:02.324Z,30.00
2017-11-05T08:48:30.061Z,38.57
2017-11-05T08:50:57.782Z,26.80
2017-11-05T08:53:26.274Z,27.57
2017-11-05T08:55:54.738Z,18.80
2017-11-05T08:58:23.245Z,18.63
2017-11-05T09:00:50.968Z,15.23
2017-11-05T09:03:18.718Z,17.27
2017-11-05T09:05:46.421Z,26.33
2017-11-05T09:08:14.168Z,12.53
2017-11-05T09:10:42.616Z,5.67
2017-11-05T09:13:10.491Z,4.70
2017-11-05T09:15:40.556Z,2.43
2017-11-05T09:18:11.273Z,1.60
2017-11-05T09:20:41.831Z,5.63
2017-11-05T09:23:11.594Z,2.30
2017-11-05T09:25:41.556Z,4.00
2017-11-05T09:28:11.505Z,2.60
2017-11-05T09:30:42.007Z,1.87
2017-11-05T09:33:12.304Z,1.90
2017-11-05T09:35:42.430Z,13.77
2017-11-05T09:38:13.128Z,2.97
2017-11-05T09:40:44.150Z,1.60
2017-11-05T09:43:14.047Z,1.83
2017-11-05T09:45:44.597Z,1.33
2017-11-05T09:48:14.921Z,1.60
2017-11-05T09:50:45.402Z,1.67
2017-11-05T09:53:13.315Z,1.80
2017-11-05T09:55:40.979Z,14.97
2017-11-05T09:58:08.676Z,10.00
2017-11-05T10:00:36.334Z,7.83
2017-11-05T10:03:04.032Z,3.33
2017-11-05T10:05:32.456Z,3.37
2017-11-05T10:08:00.108Z,2.20
2017-11-05T10:10:27.853Z,2.10
2017-11-05T10:12:55.523Z,1.73
2017-11-05T10:15:23.223Z,7.27
2017-11-05T10:17:50.884Z,2.90
2017-11-05T10:20:18.652Z,7.63
2017-11-05T10:22:46.307Z,1.97
2017-11-05T10:25:14.055Z,2.40
2017-11-05T10:27:41.707Z,2.27
2017-11-05T10:30:09.403Z,3.00
2017-11-05T10:32:37.056Z,3.20
2017-11-05T10:35:04.825Z,4.63
2017-11-05T10:37:32.483Z,3.20
2017-11-05T10:40:00.195Z,2.20
2017-11-05T10:42:27.858Z,2.10
2017-11-05T10:44:55.563Z,1.80
2017-11-05T10:47:23.220Z,2.13
2017-11-05T10:49:51.907Z,2.23
2017-11-05T10:52:20.332Z,3.07
2017-11-05T10:54:48.247Z,3.40
2017-11-05T10:57:15.904Z,4.30
2017-11-05T10:59:43.599Z,2.37
2017-11-05T11:02:11.274Z,2.90
2017-11-05T11:04:38.971Z,2.53
2017-11-05T11:07:06.629Z,5.50
2017-11-05T11:09:34.375Z,22.23
2017-11-05T11:12:02.057Z,8.80
2017-11-05T11:14:29.756Z,2.03
2017-11-05T11:16:57.414Z,3.70
2017-11-05T11:19:25.115Z,3.57
2017-11-05T11:21:52.768Z,2.70
2017-11-05T11:24:20.487Z,1.80
2017-11-05T11:26:48.168Z,2.07
2017-11-05T11:29:15.871Z,1.90
2017-11-05T11:31:43.532Z,3.70
2017-11-05T11:34:11.226Z,2.70
2017-11-05T11:36:38.880Z,2.40
2017-11-05T11:39:07.384Z,3.30
2017-11-05T11:41:36.508Z,2.97
2017-11-05T11:44:04.216Z,2.80
2017-11-05T11:46:33.311Z,2.00
2017-11-05T11:49:01.123Z,2.47
2017-11-05T11:51:29.158Z,2.70
2017-11-05T11:53:56.855Z,4.63
2017-11-05T11:56:24.823Z,4.27
2017-11-05T11:58:52.532Z,2.17
2017-11-05T12:01:20.247Z,2.40
2017-11-05T12:03:47.944Z,1.70
2017-11-05T12:06:16.467Z,2.23
2017-11-05T12:08:44.128Z,1.90
2017-11-05T12:11:11.842Z,3.90
2017-11-05T12:13:40.265Z,4.57
2017-11-05T12:16:07.968Z,3.00
2017-11-05T12:18:36.384Z,2.60
2017-11-05T12:21:04.075Z,2.37
2017-11-05T12:23:31.731Z,2.50
2017-11-05T12:25:59.427Z,2.17
2017-11-05T12:28:27.864Z,2.47
2017-11-05T12:30:55.599Z,2.90
2017-11-05T12:33:23.271Z,14.90
2017-11-05T12:35:50.998Z,18.00
2017-11-05T12:38:18.671Z,4.80
2017-11-05T12:40:46.425Z,2.40
2017-11-05T12:43:14.108Z,4.10
2017-11-05T12:45:41.820Z,2.30
2017-11-05T12:48:10.244Z,2.60
2017-11-05T12:50:37.936Z,2.17
2017-11-05T12:53:05.594Z,2.47
2017-11-05T12:55:33.300Z,2.50
2017-11-05T12:58:00.958Z,2.20
2017-11-05T13:00:28.651Z,2.43
2017-11-05T13:02:56.299Z,2.63
2017-11-05T13:05:24.016Z,2.67
2017-11-05T13:07:52.459Z,2.60
2017-11-05T13:10:20.123Z,2.53
2017-11-05T13:12:47.820Z,2.90
2017-11-05T13:15:16.280Z,2.00
2017-11-05T13:17:43.979Z,2.67
2017-11-05T13:20:11.647Z,5.00
2017-11-05T13:22:39.344Z,2.57
2017-11-05T13:25:07.012Z,2.57
2017-11-05T13:27:34.706Z,5.53
2017-11-05T13:30:02.364Z,3.23
2017-11-05T13:32:30.843Z,2.53
2017-11-05T13:34:58.487Z,2.20
2017-11-05T13:37:26.952Z,2.50
2017-11-05T13:39:54.606Z,2.60
2017-11-05T13:42:22.308Z,2.47
2017-11-05T13:44:49.988Z,5.87
2017-11-05T13:47:17.727Z,3.83
2017-11-05T13:49:45.451Z,10.90
2017-11-05T13:52:13.192Z,5.20
2017-11-05T13:54:40.848Z,8.83
2017-11-05T13:57:08.606Z,10.70
2017-11-05T13:59:36.305Z,5.03
2017-11-05T14:02:04.816Z,9.13
2017-11-05T14:04:32.517Z,12.83
2017-11-05T14:07:00.248Z,7.63
2017-11-05T14:09:27.904Z,7.50
2017-11-05T14:11:55.627Z,3.03
2017-11-05T14:14:24.053Z,3.60
2017-11-05T14:16:51.748Z,3.13
2017-11-05T14:19:19.420Z,3.20
2017-11-05T14:21:47.930Z,2.50
2017-11-05T14:24:15.614Z,5.53
2017-11-05T14:26:43.319Z,4.10
2017-11-05T14:29:11.736Z,3.10
2017-11-05T14:31:39.433Z,5.70
2017-11-05T14:34:07.084Z,4.30
2017-11-05T14:36:34.779Z,5.03
2017-11-05T14:39:03.255Z,3.07
2017-11-05T14:41:31.716Z,4.10
2017-11-05T14:43:59.397Z,2.93
2017-11-05T14:46:27.941Z,4.93
2017-11-05T14:48:55.683Z,4.30
2017-11-05T14:51:23.424Z,5.10
2017-11-05T14:53:51.108Z,3.97
2017-11-05T14:56:18.821Z,3.00
2017-11-05T14:58:47.288Z,4.43
2017-11-05T15:01:15.792Z,3.73
2017-11-05T15:03:43.462Z,3.30
2017-11-05T15:06:11.138Z,7.63
2017-11-05T15:08:38.851Z,8.20
2017-11-05T15:11:07.268Z,9.80
2017-11-05T15:13:34.963Z,5.23
2017-11-05T15:16:02.675Z,4.37
2017-11-05T15:18:30.376Z,7.70
2017-11-05T15:20:58.067Z,5.10
2017-11-05T15:23:26.692Z,6.77
2017-11-05T15:25:54.400Z,7.07
2017-11-05T15:28:22.138Z,4.70
2017-11-05T15:30:49.830Z,9.00
2017-11-05T15:33:18.396Z,5.70
2017-11-05T15:35:46.095Z,6.70
2017-11-05T15:38:13.825Z,6.53
2017-11-05T15:40:42.323Z,6.70
2017-11-05T15:43:10.857Z,9.57
2017-11-05T15:45:39.408Z,11.70
2017-11-05T15:48:07.196Z,7.87
2017-11-05T15:50:34.923Z,10.60
2017-11-05T15:53:02.692Z,29.57
2017-11-05T15:55:30.355Z,14.77
2017-11-05T15:57:58.068Z,11.80
2017-11-05T16:00:26.499Z,9.57
2017-11-05T16:02:54.203Z,11.43
2017-11-05T16:05:21.879Z,10.10
2017-11-05T16:07:50.370Z,6.70
2017-11-05T16:10:18.032Z,6.07
2017-11-05T16:12:45.747Z,8.93
2017-11-05T16:15:13.422Z,18.80
2017-11-05T16:17:41.172Z,16.77
2017-11-05T16:20:08.845Z,15.93
2017-11-05T16:22:37.346Z,24.00
2017-11-05T16:25:05.024Z,20.87
2017-11-05T16:27:32.747Z,27.87
2017-11-05T16:30:01.197Z,23.50
2017-11-05T16:32:28.953Z,18.90
2017-11-05T16:34:56.620Z,20.67
2017-11-05T16:37:24.355Z,19.77
2017-11-05T16:39:52.049Z,20.37
2017-11-05T16:42:19.764Z,23.23
2017-11-05T16:44:47.427Z,22.50
2017-11-05T16:47:15.148Z,19.57
2017-11-05T16:49:43.580Z,14.30
2017-11-05T16:52:11.291Z,11.50
2017-11-05T16:54:39.716Z,14.63
2017-11-05T16:57:07.425Z,14.57
2017-11-05T16:59:35.851Z,13.67
2017-11-05T17:02:03.609Z,15.43
2017-11-05T17:04:31.281Z,14.40
2017-11-05T17:06:59.251Z,14.40
2017-11-05T17:09:26.940Z,12.60
2017-11-05T17:11:56.314Z,12.60
2017-11-05T17:14:25.941Z,13.37
2017-11-05T17:16:57.304Z,13.60
2017-11-05T17:19:27.738Z,14.23
2017-11-05T17:21:58.925Z,14.37
2017-11-05T17:24:28.891Z,14.43
2017-11-05T17:26:58.943Z,11.27
2017-11-05T17:29:28.735Z,12.43
2017-11-05T17:31:59.996Z,15.77
2017-11-05T17:34:30.228Z,21.23
2017-11-05T17:37:01.130Z,22.20
2017-11-05T17:39:31.492Z,15.77
2017-11-05T17:42:01.966Z,11.20
2017-11-05T17:44:32.029Z,12.20
2017-11-05T17:47:02.372Z,12.30
2017-11-05T17:49:33.036Z,11.47
2017-11-05T17:52:04.282Z,14.03
2017-11-05T17:54:34.834Z,29.40
2017-11-05T17:57:05.618Z,13.37
2017-11-05T17:59:35.721Z,12.57
2017-11-05T18:02:06.736Z,10.13
2017-11-05T18:04:36.531Z,5.77
2017-11-05T18:07:07.315Z,5.90
2017-11-05T18:09:37.798Z,5.90
2017-11-05T18:12:08.284Z,11.30
2017-11-05T18:14:38.475Z,5.40
2017-11-05T18:17:08.893Z,8.37
2017-11-05T18:19:38.838Z,13.63
2017-11-05T18:22:10.477Z,8.43
2017-11-05T18:24:40.607Z,5.40
2017-11-05T18:27:11.033Z,8.00
2017-11-05T18:29:41.482Z,7.67
2017-11-05T18:32:11.669Z,9.07
2017-11-05T18:34:42.229Z,6.07
2017-11-05T18:37:12.171Z,6.90
2017-11-05T18:39:42.081Z,3.90
2017-11-05T18:42:12.660Z,7.37
2017-11-05T18:44:43.805Z,8.03
2017-11-05T18:47:11.727Z,5.70
2017-11-05T18:49:39.405Z,6.50
2017-11-05T18:52:07.930Z,4.60
2017-11-05T18:54:35.691Z,4.67
2017-11-05T18:57:03.404Z,6.10
2017-11-05T18:59:31.875Z,6.73
2017-11-05T19:01:59.589Z,6.93
2017-11-05T19:04:27.299Z,4.60
2017-11-05T19:06:55.724Z,5.70
2017-11-05T19:09:23.498Z,9.67
2017-11-05T19:11:51.164Z,4.80
2017-11-05T19:14:18.858Z,8.30
2017-11-05T19:16:47.300Z,5.60
2017-11-05T19:19:15.028Z,9.97
2017-11-05T19:21:42.702Z,9.50
2017-11-05T19:24:10.452Z,7.00
2017-11-05T19:26:38.131Z,6.10
2017-11-05T19:29:05.831Z,5.60
2017-11-05T19:31:33.484Z,8.20
2017-11-05T19:34:01.216Z,7.97
2017-11-05T19:36:28.899Z,6.77
2017-11-05T19:38:56.600Z,5.60
2017-11-05T19:41:24.260Z,7.30
2017-11-05T19:43:51.964Z,8.53
2017-11-05T19:46:19.656Z,6.13
2017-11-05T19:48:48.116Z,7.30
2017-11-05T19:51:15.776Z,9.50
2017-11-05T19:53:43.471Z,5.33
2017-11-05T19:56:11.126Z,7.67
2017-11-05T19:58:39.583Z,6.50
2017-11-05T20:01:07.275Z,6.60
2017-11-05T20:03:35.077Z,7.47
2017-11-05T20:06:02.739Z,10.67
2017-11-05T20:08:30.433Z,8.43
2017-11-05T20:10:58.856Z,13.30
2017-11-05T20:13:26.556Z,9.97
2017-11-05T20:15:54.214Z,10.00
2017-11-05T20:18:22.908Z,11.90
2017-11-05T20:20:51.354Z,9.33
2017-11-05T20:23:19.051Z,11.23
2017-11-05T20:25:47.480Z,16.00
2017-11-05T20:28:15.187Z,10.10
2017-11-05T20:30:43.611Z,10.63
2017-11-05T20:33:11.303Z,10.80
2017-11-05T20:35:39.050Z,15.80
2017-11-05T20:38:06.752Z,9.50
2017-11-05T20:40:35.180Z,13.60
2017-11-05T20:43:02.883Z,9.97
2017-11-05T20:45:31.308Z,10.37
2017-11-05T20:47:59.009Z,13.43
2017-11-05T20:50:26.674Z,16.93
2017-11-05T20:52:54.367Z,9.93
2017-11-05T20:55:22.023Z,11.43
2017-11-05T20:57:49.731Z,11.13
2017-11-05T21:00:17.399Z,11.20
2017-11-05T21:02:45.092Z,9.27
2017-11-05T21:05:13.517Z,9.87
2017-11-05T21:07:41.332Z,10.90
2017-11-05T21:10:09.011Z,15.47
2017-11-05T21:12:36.695Z,14.30
2017-11-05T21:15:04.416Z,9.93
2017-11-05T21:17:32.075Z,12.70
2017-11-05T21:19:59.788Z,15.10
2017-11-05T21:22:27.450Z,10.90
2017-11-05T21:24:55.156Z,12.80
2017-11-05T21:27:22.807Z,11.80
2017-11-05T21:29:51.267Z,14.27
2017-11-05T21:32:18.963Z,11.23
2017-11-05T21:34:46.655Z,10.43
2017-11-05T21:37:14.308Z,12.70
2017-11-05T21:39:42.042Z,9.40
2017-11-05T21:42:09.696Z,12.10
2017-11-05T21:44:37.411Z,14.00
2017-11-05T21:47:05.088Z,14.83
2017-11-05T21:49:33.663Z,11.97
2017-11-05T21:52:02.099Z,15.97
2017-11-05T21:54:29.799Z,17.10
2017-11-05T21:56:57.595Z,15.40
2017-11-05T21:59:25.341Z,12.00
2017-11-05T22:01:53.816Z,16.80
2017-11-05T22:04:22.316Z,16.30
2017-11-05T22:06:49.979Z,12.57
2017-11-05T22:09:17.696Z,16.13
2017-11-05T22:11:45.360Z,14.70
2017-11-05T22:14:13.059Z,16.33
2017-11-05T22:16:40.736Z,19.10
2017-11-05T22:19:08.436Z,19.20
2017-11-05T22:21:36.096Z,17.17
2017-11-05T22:24:03.800Z,16.90
2017-11-05T22:26:31.464Z,16.10
2017-11-05T22:28:59.183Z,16.37
2017-11-05T22:31:27.620Z,16.67
2017-11-05T22:33:55.271Z,15.63
2017-11-05T22:36:22.971Z,13.80
2017-11-05T22:38:50.622Z,13.20
2017-11-05T22:41:18.322Z,13.30
2017-11-05T22:43:45.972Z,11.93
2017-11-05T22:46:14.431Z,13.00
2017-11-05T22:48:42.108Z,14.07
2017-11-05T22:51:10.575Z,12.10
2017-11-05T22:53:38.999Z,15.80
2017-11-05T22:56:06.699Z,13.73
2017-11-05T22:58:34.357Z,14.83
2017-11-05T23:01:02.074Z,13.20
2017-11-05T23:03:29.735Z,13.17
2017-11-05T23:05:57.430Z,15.00
2017-11-05T23:08:25.088Z,12.77
2017-11-05T23:10:52.799Z,16.77
2017-11-05T23:13:20.458Z,16.50
2017-11-05T23:15:48.205Z,13.33
2017-11-05T23:18:16.627Z,15.10
2017-11-05T23:20:44.327Z,16.63
2017-11-05T23:23:12.752Z,17.50
2017-11-05T23:25:41.063Z,14.50
2017-11-05T23:28:08.720Z,15.33
2017-11-05T23:30:36.434Z,14.63
2017-11-05T23:33:04.140Z,15.27
2017-11-05T23:35:31.844Z,14.47
2017-11-05T23:37:59.576Z,14.30
2017-11-05T23:40:28.038Z,16.63
2017-11-05T23:42:55.759Z,18.50
2017-11-05T23:45:23.419Z,16.13
2017-11-05T23:47:51.138Z,20.17
2017-11-05T23:50:19.564Z,14.90
2017-11-05T23:52:47.266Z,15.97
2017-11-05T23:55:14.923Z,13.83
2017-11-05T23:57:42.628Z,19.83
